Time;durP1;ratioP1;P1;durP2;ratioP2;P2;SDS_P1;SDS_P2;PMS_P1;PMS_P2;Temp;Humidity;BMP_temperature;BMP_pressure;BME280_temperature;BME280_humidity;BME280_pressure;Samples;Min_cycle;Max_cycle;Signal;HPM_P1;HPM_P2
2022/09/09 00:01:30;;;;;;;3.10;1.10;;;;;;;14.05;97.11;100185.40;106449;1280;62400;-83
2022/09/09 00:04:00;;;;;;;2.80;1.30;;;;;;;14.01;97.15;100185.73;106902;1280;60405;-83
2022/09/09 00:06:31;;;;;;;4.40;1.40;;;;;;;13.97;97.37;100184.48;106814;1279;73011;-83
2022/09/09 00:09:12;;;;;;;4.40;1.20;;;;;;;13.96;97.45;100180.79;106499;1280;72857;-82
2022/09/09 00:11:43;;;;;;;3.00;1.00;;;;;;;13.93;97.24;100176.73;106750;1280;72682;-84
2022/09/09 00:14:20;;;;;;;2.00;1.10;;;;;;;13.90;97.36;100181.84;106947;1280;62687;-83
2022/09/09 00:16:54;;;;;;;3.20;1.20;;;;;;;13.87;97.41;100185.81;107124;1280;61622;-83
2022/09/09 00:19:33;;;;;;;3.40;1.10;;;;;;;13.86;97.29;100185.63;106680;1280;74902;-84
2022/09/09 00:22:22;;;;;;;2.80;1.10;;;;;;;13.86;97.23;100185.77;106300;1281;72790;-82
2022/09/09 00:24:54;;;;;;;3.10;1.20;;;;;;;13.84;97.09;100180.00;106570;1280;72887;-83
2022/09/09 00:27:46;;;;;;;5.10;1.30;;;;;;;13.83;97.26;100182.10;107023;1280;62625;-82
2022/09/09 00:30:19;;;;;;;4.00;1.10;;;;;;;13.82;97.18;100178.90;106485;1280;60872;-84
2022/09/09 00:32:48;;;;;;;3.00;1.10;;;;;;;13.80;97.18;100174.68;107111;1279;74896;-83
2022/09/09 00:35:15;;;;;;;2.20;1.10;;;;;;;13.79;97.34;100180.02;107328;1279;72828;-83
2022/09/09 00:37:44;;;;;;;3.10;1.20;;;;;;;13.79;97.05;100181.45;106789;1281;73173;-83
2022/09/09 00:40:26;;;;;;;4.30;1.00;;;;;;;13.78;97.06;100180.17;106274;1280;63935;-83
2022/09/09 00:43:30;;;;;;;3.40;1.10;;;;;;;13.77;96.91;100180.60;106461;1280;61684;-83
2022/09/09 00:46:44;;;;;;;3.00;1.00;;;;;;;13.76;96.85;100180.96;106724;1280;76521;-83
2022/09/09 00:49:25;;;;;;;2.40;1.00;;;;;;;13.74;96.87;100177.52;106343;1280;71469;-84
2022/09/09 00:52:13;;;;;;;3.80;1.10;;;;;;;13.71;96.66;100169.25;107020;1280;73130;-83
2022/09/09 00:54:55;;;;;;;1.80;0.90;;;;;;;13.70;96.81;100168.95;107231;1279;62583;-82
2022/09/09 00:57:28;;;;;;;4.10;1.10;;;;;;;13.69;96.53;100173.81;106462;1280;60689;-83
2022/09/09 00:59:54;;;;;;;2.90;1.00;;;;;;;13.67;96.74;100173.64;106438;1279;74161;-83
2022/09/09 01:02:29;;;;;;;1.70;1.00;;;;;;;13.65;96.77;100178.20;106377;1280;71904;-83
2022/09/09 01:05:08;;;;;;;2.50;1.30;;;;;;;13.62;96.62;100178.04;106912;1279;73183;-85
2022/09/09 01:07:36;;;;;;;2.50;1.10;;;;;;;13.60;96.61;100183.86;107027;1280;62220;-84
2022/09/09 01:10:15;;;;;;;2.30;0.90;;;;;;;13.57;96.93;100182.34;107003;1280;60376;-83
2022/09/09 01:12:43;;;;;;;3.20;1.40;;;;;;;13.55;96.88;100187.23;107351;1277;74060;-84
2022/09/09 01:15:30;;;;;;;2.90;1.10;;;;;;;13.54;96.74;100185.61;107549;1279;71364;-84
2022/09/09 01:17:57;;;;;;;3.60;1.00;;;;;;;13.53;96.94;100189.08;106928;1280;72815;-85
2022/09/09 01:20:56;;;;;;;3.80;1.00;;;;;;;13.52;96.93;100189.54;106642;1279;62085;-84
2022/09/09 01:23:46;;;;;;;1.80;1.00;;;;;;;13.52;96.93;100181.90;106942;1281;59819;-83
2022/09/09 01:26:33;;;;;;;3.40;0.90;;;;;;;13.52;97.22;100175.92;106808;1280;75530;-84
2022/09/09 01:29:01;;;;;;;2.80;0.90;;;;;;;13.52;96.76;100175.52;107077;1280;74369;-85
2022/09/09 01:31:36;;;;;;;2.90;1.00;;;;;;;13.53;96.78;100172.06;106767;1282;74356;-83
2022/09/09 01:34:09;;;;;;;2.70;0.80;;;;;;;13.53;96.74;100169.48;106956;1280;63038;-86
2022/09/09 01:36:42;;;;;;;2.30;1.00;;;;;;;13.53;96.39;100170.88;107507;1280;60699;-85
2022/09/09 01:39:10;;;;;;;2.70;0.90;;;;;;;13.53;96.45;100170.76;106782;1280;75245;-84
2022/09/09 01:41:38;;;;;;;3.00;1.00;;;;;;;13.53;96.43;100166.82;106768;1280;71208;-84
2022/09/09 01:44:07;;;;;;;5.80;1.30;;;;;;;13.53;96.39;100169.15;106953;1280;72514;-83
2022/09/09 01:46:33;;;;;;;3.50;1.00;;;;;;;13.52;96.34;100168.84;106301;1280;63354;-82
2022/09/09 01:49:03;;;;;;;3.40;1.00;;;;;;;13.50;96.55;100169.27;106700;1280;60486;-83
2022/09/09 01:51:30;;;;;;;3.90;1.10;;;;;;;13.49;96.82;100170.52;106816;1280;74795;-83
2022/09/09 01:53:57;;;;;;;3.70;1.00;;;;;;;13.48;96.67;100162.64;106711;1280;72337;-82
2022/09/09 01:56:47;;;;;;;4.70;1.40;;;;;;;13.45;96.61;100165.84;106241;1281;71615;-82
2022/09/09 01:59:48;;;;;;;3.10;1.10;;;;;;;13.47;96.63;100171.17;106295;1280;62041;-83
2022/09/09 02:02:26;;;;;;;3.50;1.10;;;;;;;13.49;96.45;100175.10;107206;1279;61559;-83
2022/09/09 02:05:02;;;;;;;4.90;1.20;;;;;;;13.49;96.43;100174.29;106643;1280;74139;-83
2022/09/09 02:07:41;;;;;;;3.60;1.00;;;;;;;13.49;96.37;100178.55;106786;1280;71231;-82
2022/09/09 02:10:24;;;;;;;4.20;1.20;;;;;;;13.50;96.34;100186.95;106311;1280;73967;-84
2022/09/09 02:13:08;;;;;;;3.40;1.10;;;;;;;13.52;96.58;100186.79;107270;1280;62266;-83
2022/09/09 02:15:41;;;;;;;3.90;1.20;;;;;;;13.54;96.76;100179.89;106127;1281;59666;-85
2022/09/09 02:18:12;;;;;;;5.00;1.10;;;;;;;13.56;96.43;100177.97;106213;1281;73937;-83
2022/09/09 02:20:39;;;;;;;3.50;1.10;;;;;;;13.57;96.39;100177.46;106993;1280;72817;-82
2022/09/09 02:23:08;;;;;;;3.40;1.20;;;;;;;13.58;96.34;100176.67;107367;1281;73142;-83
2022/09/09 02:25:37;;;;;;;3.60;1.10;;;;;;;13.57;96.40;100172.46;106453;1280;61353;-83
2022/09/09 02:28:07;;;;;;;2.00;1.00;;;;;;;13.58;96.38;100176.30;106447;1281;60517;-82
2022/09/09 02:30:35;;;;;;;4.30;1.20;;;;;;;13.58;96.43;100175.08;106926;1281;73011;-82
2022/09/09 02:33:06;;;;;;;2.40;1.10;;;;;;;13.58;96.25;100179.89;106496;1280;71216;-82
2022/09/09 02:35:37;;;;;;;3.00;1.20;;;;;;;13.60;96.44;100181.04;106136;1280;73870;-83
2022/09/09 02:38:10;;;;;;;2.40;1.00;;;;;;;13.62;96.39;100178.90;106823;1280;62072;-82
2022/09/09 02:40:37;;;;;;;2.60;1.20;;;;;;;13.64;96.45;100170.69;107133;1280;60572;-83
2022/09/09 02:43:06;;;;;;;3.90;1.30;;;;;;;13.63;96.11;100168.73;106635;1281;74457;-82
2022/09/09 02:45:51;;;;;;;3.60;1.10;;;;;;;13.67;96.19;100168.19;106264;1280;72531;-82
2022/09/09 02:48:26;;;;;;;2.80;1.20;;;;;;;13.69;96.24;100168.14;106747;1280;73957;-83
2022/09/09 02:50:57;;;;;;;4.40;1.10;;;;;;;13.70;96.20;100165.19;107189;1277;62216;-83
2022/09/09 02:53:34;;;;;;;4.10;1.20;;;;;;;13.72;96.09;100164.40;106978;1276;60460;-83
2022/09/09 02:56:20;;;;;;;2.10;1.00;;;;;;;13.75;96.19;100165.75;106472;1278;74768;-83
2022/09/09 02:58:47;;;;;;;2.70;1.00;;;;;;;13.77;95.96;100158.61;107204;1277;71032;-83
2022/09/09 03:01:14;;;;;;;3.80;1.00;;;;;;;13.80;96.05;100158.94;107111;1277;72549;-83
2022/09/09 03:03:42;;;;;;;4.10;1.20;;;;;;;13.83;96.08;100165.98;106827;1277;63243;-83
2022/09/09 03:06:09;;;;;;;4.60;1.20;;;;;;;13.87;96.17;100168.30;106477;1277;60869;-84
2022/09/09 03:08:36;;;;;;;3.50;1.00;;;;;;;13.91;96.02;100167.96;106769;1278;73813;-84
2022/09/09 03:11:07;;;;;;;3.50;1.10;;;;;;;13.95;95.93;100163.89;106436;1278;71429;-82
2022/09/09 03:13:34;;;;;;;3.70;1.20;;;;;;;13.97;95.79;100162.83;106785;1277;72731;-82
2022/09/09 03:16:01;;;;;;;3.00;1.30;;;;;;;13.99;95.91;100171.42;106787;1277;63296;-84
2022/09/09 03:18:32;;;;;;;3.20;1.20;;;;;;;14.01;95.94;100174.49;107439;1277;61381;-83
2022/09/09 03:20:59;;;;;;;4.50;1.10;;;;;;;14.04;95.90;100175.52;107132;1277;74000;-82
2022/09/09 03:23:26;;;;;;;4.10;1.10;;;;;;;14.06;95.87;100173.63;106269;1277;72128;-84
2022/09/09 03:25:56;;;;;;;3.30;1.20;;;;;;;14.10;95.91;100172.66;106674;1277;73173;-83
2022/09/09 03:28:24;;;;;;;3.10;1.20;;;;;;;14.12;95.75;100166.66;107121;1277;61985;-83
2022/09/09 03:30:51;;;;;;;5.10;1.30;;;;;;;14.15;95.69;100170.88;106488;1277;60455;-83
2022/09/09 03:33:18;;;;;;;3.00;1.20;;;;;;;14.18;95.67;100167.95;106305;1278;72447;-84
2022/09/09 03:35:48;;;;;;;3.30;1.20;;;;;;;14.19;95.88;100173.06;107283;1277;71689;-84
2022/09/09 03:38:15;;;;;;;3.60;1.30;;;;;;;14.21;95.69;100174.91;107145;1277;74725;-84
2022/09/09 03:40:49;;;;;;;5.70;1.40;;;;;;;14.23;95.68;100173.14;107025;1277;62754;-84
2022/09/09 03:43:16;;;;;;;3.50;1.20;;;;;;;14.24;95.54;100174.41;106485;1277;61029;-85
2022/09/09 03:45:47;;;;;;;3.30;1.10;;;;;;;14.25;95.64;100172.89;106560;1277;75101;-83
2022/09/09 03:48:15;;;;;;;4.50;1.20;;;;;;;14.24;95.57;100170.96;106574;1278;71280;-83
2022/09/09 03:50:46;;;;;;;4.70;1.30;;;;;;;14.24;95.83;100173.10;106718;1277;72663;-84
2022/09/09 03:53:15;;;;;;;2.40;1.20;;;;;;;14.25;95.93;100170.23;106502;1278;63407;-84
2022/09/09 03:55:46;;;;;;;2.60;1.20;;;;;;;14.26;95.92;100170.77;107115;1277;61616;-84
2022/09/09 03:58:14;;;;;;;4.00;1.30;;;;;;;14.27;95.95;100170.30;107133;1277;74085;-85
2022/09/09 04:00:44;;;;;;;4.40;1.40;;;;;;;14.29;95.98;100168.65;106228;1277;70583;-83
2022/09/09 04:03:11;;;;;;;4.60;1.40;;;;;;;14.31;95.97;100169.75;106613;1277;72980;-86
2022/09/09 04:05:42;;;;;;;3.20;1.30;;;;;;;14.34;95.99;100169.73;106755;1277;62164;-84
2022/09/09 04:08:09;;;;;;;4.90;1.50;;;;;;;14.36;96.07;100174.27;107133;1276;60599;-84
2022/09/09 04:10:37;;;;;;;4.60;1.50;;;;;;;14.38;96.16;100172.67;106681;1277;74057;-84
2022/09/09 04:13:04;;;;;;;4.00;1.20;;;;;;;14.40;96.09;100175.94;107285;1277;71561;-84
2022/09/09 04:15:31;;;;;;;3.40;1.60;;;;;;;14.40;95.80;100179.84;107708;1276;73292;-83
2022/09/09 04:17:58;;;;;;;2.60;1.30;;;;;;;14.40;95.74;100178.77;107130;1277;61935;-83
2022/09/09 04:20:25;;;;;;;3.40;1.30;;;;;;;14.40;95.77;100177.13;106966;1277;60619;-83
2022/09/09 04:22:52;;;;;;;3.90;1.60;;;;;;;14.41;96.12;100170.31;106389;1277;73906;-83
2022/09/09 04:25:20;;;;;;;3.40;1.30;;;;;;;14.40;95.95;100170.03;107486;1277;71508;-83
2022/09/09 04:27:47;;;;;;;5.40;1.50;;;;;;;14.37;96.05;100172.55;107067;1279;71972;-83
2022/09/09 04:30:14;;;;;;;4.60;1.60;;;;;;;14.35;96.48;100173.80;107222;1277;63106;-81
2022/09/09 04:32:40;;;;;;;6.50;1.60;;;;;;;14.35;96.78;100177.41;107043;1277;60492;-83
2022/09/09 04:35:07;;;;;;;4.30;1.50;;;;;;;14.38;97.18;100178.64;107613;1277;74442;-82
2022/09/09 04:37:34;;;;;;;3.60;1.40;;;;;;;14.43;97.15;100181.07;106932;1277;72726;-82
2022/09/09 04:40:02;;;;;;;4.90;1.30;;;;;;;14.48;97.06;100171.84;106826;1277;74287;-81
2022/09/09 04:42:29;;;;;;;4.00;1.30;;;;;;;14.53;96.98;100176.95;106772;1277;63346;-82
2022/09/09 04:44:57;;;;;;;4.70;1.30;;;;;;;14.59;96.87;100179.23;107066;1277;61881;-80
2022/09/09 04:47:23;;;;;;;2.80;1.10;;;;;;;14.63;96.59;100179.88;107099;1277;74049;-82
2022/09/09 04:49:51;;;;;;;4.70;1.30;;;;;;;14.67;96.29;100179.32;106590;1278;71445;-82
2022/09/09 04:52:18;;;;;;;4.50;1.30;;;;;;;14.73;96.06;100182.61;107496;1277;73467;-82
2022/09/09 04:54:45;;;;;;;5.00;1.40;;;;;;;14.78;95.87;100184.27;106755;1277;61272;-82
2022/09/09 04:57:12;;;;;;;4.70;1.20;;;;;;;14.82;95.81;100188.60;106588;1277;61567;-83
2022/09/09 04:59:45;;;;;;;4.90;1.60;;;;;;;14.86;95.79;100184.66;106783;1277;76113;-81
2022/09/09 05:02:12;;;;;;;6.30;1.30;;;;;;;14.90;95.63;100188.42;107536;1276;71442;-81
2022/09/09 05:04:39;;;;;;;5.60;1.40;;;;;;;14.92;95.65;100186.15;106760;1277;72920;-81
2022/09/09 05:07:07;;;;;;;3.80;1.20;;;;;;;14.94;95.54;100187.44;106944;1277;64662;-81
2022/09/09 05:09:34;;;;;;;4.10;1.70;;;;;;;14.98;95.40;100191.23;106646;1276;60576;-80
2022/09/09 05:12:02;;;;;;;4.90;1.90;;;;;;;15.00;95.31;100195.82;107294;1277;74313;-81
2022/09/09 05:14:29;;;;;;;3.20;1.30;;;;;;;15.05;95.52;100196.15;106818;1277;71145;-81
2022/09/09 05:16:57;;;;;;;8.20;4.90;;;;;;;15.10;95.33;100197.89;107220;1277;72358;-81
2022/09/09 05:19:24;;;;;;;5.80;1.50;;;;;;;15.15;95.34;100198.66;108108;1277;63800;-81
2022/09/09 05:21:51;;;;;;;5.80;1.60;;;;;;;15.19;95.26;100193.14;106982;1277;60596;-81
2022/09/09 05:24:18;;;;;;;5.30;2.30;;;;;;;15.21;95.14;100192.76;106897;1277;73582;-81
2022/09/09 05:26:45;;;;;;;4.40;1.60;;;;;;;15.21;94.89;100198.67;106695;1276;69929;-81
2022/09/09 05:29:12;;;;;;;7.00;3.70;;;;;;;15.19;94.87;100198.23;107366;1277;72859;-80
2022/09/09 05:31:39;;;;;;;7.10;2.40;;;;;;;15.19;94.86;100195.45;106478;1277;61660;-79
2022/09/09 05:34:05;;;;;;;4.80;1.80;;;;;;;15.18;94.92;100197.55;107075;1277;61025;-79
2022/09/09 05:36:32;;;;;;;5.70;1.70;;;;;;;15.18;95.12;100191.46;106487;1276;75152;-78
2022/09/09 05:39:01;;;;;;;7.80;1.60;;;;;;;15.20;95.18;100199.92;106174;1278;70991;-78
2022/09/09 05:41:28;;;;;;;4.00;1.50;;;;;;;15.23;95.41;100195.38;106040;1277;73369;-78
2022/09/09 05:43:55;;;;;;;3.20;1.30;;;;;;;15.27;95.27;100202.36;106960;1276;61998;-79
2022/09/09 05:46:24;;;;;;;3.60;1.30;;;;;;;15.31;95.08;100208.13;105757;1277;61651;-79
2022/09/09 05:48:53;;;;;;;5.40;1.40;;;;;;;15.33;94.98;100212.22;106480;1277;74930;-80
2022/09/09 05:51:27;;;;;;;5.50;1.70;;;;;;;15.35;94.78;100213.20;105872;1277;72413;-79
2022/09/09 05:53:55;;;;;;;4.50;1.50;;;;;;;15.38;94.68;100207.46;106709;1276;73215;-79
2022/09/09 05:56:25;;;;;;;5.10;1.30;;;;;;;15.40;94.80;100208.17;105907;1276;60952;-79
2022/09/09 05:58:53;;;;;;;3.20;1.40;;;;;;;15.44;94.82;100207.83;106287;1277;60932;-78
2022/09/09 06:01:32;;;;;;;6.30;1.50;;;;;;;15.48;94.67;100208.98;106561;1276;75297;-78
2022/09/09 06:03:59;;;;;;;3.70;1.30;;;;;;;15.50;94.42;100204.27;106827;1277;72423;-79
2022/09/09 06:06:30;;;;;;;3.50;1.20;;;;;;;15.54;94.62;100209.02;105839;1277;71686;-79
2022/09/09 06:08:57;;;;;;;4.70;1.40;;;;;;;15.56;94.47;100210.60;106581;1277;63403;-80
2022/09/09 06:11:27;;;;;;;3.40;1.30;;;;;;;15.58;94.21;100213.29;105649;1277;60349;-79
2022/09/09 06:13:54;;;;;;;4.70;1.40;;;;;;;15.60;94.32;100215.75;106228;1276;74636;-80
2022/09/09 06:16:23;;;;;;;5.40;1.50;;;;;;;15.63;94.33;100222.05;105071;1277;71183;-78
2022/09/09 06:18:51;;;;;;;6.60;2.00;;;;;;;15.69;94.44;100221.73;106683;1276;72989;-78
2022/09/09 06:21:29;;;;;;;5.90;1.70;;;;;;;15.74;94.24;100226.38;106434;1276;63308;-78
2022/09/09 06:23:57;;;;;;;5.40;1.40;;;;;;;15.79;94.16;100224.15;106037;1277;60506;-78
2022/09/09 06:26:35;;;;;;;5.60;1.50;;;;;;;15.84;94.16;100229.19;105594;1277;75346;-79
2022/09/09 06:29:03;;;;;;;4.60;1.60;;;;;;;15.93;94.20;100224.91;106535;1276;71929;-79
2022/09/09 06:31:33;;;;;;;6.80;1.90;;;;;;;16.01;94.00;100225.16;105870;1277;74179;-79
2022/09/09 06:34:02;;;;;;;4.90;1.70;;;;;;;16.10;93.83;100224.67;105495;1276;63484;-79
2022/09/09 06:36:31;;;;;;;6.10;1.90;;;;;;;16.19;93.75;100224.44;106195;1277;60404;-79
2022/09/09 06:38:58;;;;;;;5.10;1.70;;;;;;;16.29;93.51;100221.25;106743;1277;73952;-79
2022/09/09 06:41:28;;;;;;;6.10;1.70;;;;;;;16.42;93.45;100221.04;106611;1277;71493;-79
2022/09/09 06:43:55;;;;;;;6.20;1.40;;;;;;;16.57;93.65;100219.73;105743;1277;72989;-79
2022/09/09 06:46:32;;;;;;;5.50;1.60;;;;;;;16.75;93.62;100221.72;106460;1276;61470;-79
2022/09/09 06:49:00;;;;;;;4.10;1.30;;;;;;;16.94;93.31;100218.50;106198;1276;61383;-79
2022/09/09 06:51:30;;;;;;;4.80;1.40;;;;;;;17.11;92.45;100219.19;106367;1277;75164;-79
2022/09/09 06:54:02;;;;;;;3.70;1.40;;;;;;;17.28;91.79;100218.58;105863;1277;71304;-79
2022/09/09 06:56:31;;;;;;;5.50;1.30;;;;;;;17.46;91.22;100213.16;106781;1276;73019;-79
2022/09/09 06:59:03;;;;;;;5.20;1.10;;;;;;;17.68;90.40;100215.88;105810;1277;60955;-79
2022/09/09 07:01:37;;;;;;;4.70;1.30;;;;;;;17.92;89.93;100215.27;106380;1277;61667;-79
2022/09/09 07:04:07;;;;;;;3.20;1.20;;;;;;;18.15;89.11;100208.02;104879;1276;1617313;-79
2022/09/09 07:06:36;;;;;;;3.80;1.50;;;;;;;18.29;87.72;100204.76;105934;1276;72208;-79
2022/09/09 07:09:06;;;;;;;4.20;1.20;;;;;;;18.36;86.17;100201.98;105270;1277;75296;-81
2022/09/09 07:11:37;;;;;;;4.60;1.30;;;;;;;18.39;85.66;100196.09;106668;1277;62123;-79
2022/09/09 07:14:04;;;;;;;3.80;1.50;;;;;;;18.38;84.75;100196.60;106156;1277;60660;-79
2022/09/09 07:16:33;;;;;;;3.20;1.30;;;;;;;18.31;83.26;100203.44;106543;1277;74176;-80
2022/09/09 07:19:00;;;;;;;3.30;1.10;;;;;;;18.17;82.27;100207.68;106283;1276;71234;-79
2022/09/09 07:21:28;;;;;;;4.40;1.20;;;;;;;18.04;82.76;100211.23;106126;1275;74061;-78
2022/09/09 07:23:56;;;;;;;3.50;1.30;;;;;;;17.94;82.94;100215.84;105318;1277;62645;-79
2022/09/09 07:26:25;;;;;;;4.60;1.40;;;;;;;17.90;83.62;100217.90;106242;1276;61115;-79
2022/09/09 07:28:53;;;;;;;5.70;1.50;;;;;;;17.90;84.01;100220.75;105715;1277;74123;-79
2022/09/09 07:31:31;;;;;;;5.90;1.50;;;;;;;17.94;84.35;100224.85;106612;1276;71368;-79
2022/09/09 07:33:59;;;;;;;4.60;1.40;;;;;;;18.01;84.68;100224.84;105709;1277;72912;-79
2022/09/09 07:36:32;;;;;;;3.50;1.30;;;;;;;18.12;84.81;100223.84;105880;1277;62029;-79
2022/09/09 07:39:05;;;;;;;3.10;1.10;;;;;;;18.25;84.08;100218.52;107151;1276;61108;-79
2022/09/09 07:41:33;;;;;;;6.90;1.30;;;;;;;18.36;83.41;100224.49;105614;1277;72956;-78
2022/09/09 07:44:08;;;;;;;5.80;1.60;;;;;;;18.42;82.58;100227.79;105960;1277;71221;-79
2022/09/09 07:46:36;;;;;;;3.40;1.10;;;;;;;18.49;81.35;100229.02;105745;1276;74310;-79
2022/09/09 07:49:03;;;;;;;3.80;1.30;;;;;;;18.57;81.58;100222.55;106701;1277;62278;-80
2022/09/09 07:51:36;;;;;;;4.90;1.20;;;;;;;18.63;80.01;100223.67;106735;1277;60345;-82
2022/09/09 07:54:06;;;;;;;3.70;1.10;;;;;;;18.68;79.79;100222.36;106857;1277;74726;-80
2022/09/09 07:56:33;;;;;;;5.20;1.30;;;;;;;18.76;80.10;100225.54;106837;1277;71206;-80
2022/09/09 07:59:00;;;;;;;6.00;1.30;;;;;;;18.84;79.59;100230.16;106674;1277;73167;-81
2022/09/09 08:01:29;;;;;;;3.50;1.10;;;;;;;18.89;78.45;100230.74;105840;1276;62212;-80
2022/09/09 08:04:02;;;;;;;3.30;1.10;;;;;;;18.97;78.35;100231.14;106273;1277;60439;-80
2022/09/09 08:06:50;;;;;;;4.80;1.10;;;;;;;19.07;78.41;100232.02;105744;1277;73946;-80
2022/09/09 08:09:17;;;;;;;4.60;1.20;;;;;;;19.21;77.99;100229.52;106694;1276;72496;-81
2022/09/09 08:11:43;;;;;;;2.90;0.90;;;;;;;19.30;76.46;100234.95;106297;1277;71901;-81
2022/09/09 08:14:11;;;;;;;4.00;1.10;;;;;;;19.42;76.23;100235.49;106651;1276;63194;-80
2022/09/09 08:16:44;;;;;;;3.80;1.00;;;;;;;19.52;74.89;100241.74;106629;1276;60621;-80
2022/09/09 08:19:11;;;;;;;3.70;1.10;;;;;;;19.57;74.50;100243.92;106310;1277;73895;-81
2022/09/09 08:21:40;;;;;;;3.40;0.90;;;;;;;19.60;73.72;100236.38;106191;1277;72033;-80
2022/09/09 08:24:10;;;;;;;4.30;1.10;;;;;;;19.59;73.20;100240.08;106958;1277;74135;-81
2022/09/09 08:26:39;;;;;;;2.30;0.90;;;;;;;19.59;73.12;100239.86;106358;1277;63745;-79
2022/09/09 08:29:07;;;;;;;4.30;0.90;;;;;;;19.61;73.28;100240.48;106237;1276;60791;-80
2022/09/09 08:31:38;;;;;;;4.60;1.30;;;;;;;19.69;73.45;100246.42;107136;1276;74141;-80
2022/09/09 08:34:07;;;;;;;3.80;1.10;;;;;;;19.84;72.87;100246.89;106478;1277;71262;-79
2022/09/09 08:36:42;;;;;;;4.50;1.10;;;;;;;19.99;72.64;100244.19;106078;1277;72942;-80
2022/09/09 08:39:10;;;;;;;3.90;0.90;;;;;;;20.14;72.36;100244.05;105996;1276;63029;-80
2022/09/09 08:42:02;;;;;;;3.70;1.10;;;;;;;20.24;71.09;100245.33;106287;1277;60480;-81
2022/09/09 08:44:35;;;;;;;3.20;1.00;;;;;;;20.46;70.57;100240.80;106687;1277;75143;-79
2022/09/09 08:47:09;;;;;;;3.90;1.20;;;;;;;20.67;69.47;100245.10;106735;1277;73329;-80
2022/09/09 08:49:48;;;;;;;3.50;1.00;;;;;;;20.93;70.59;100244.39;106329;1276;73710;-80
2022/09/09 08:52:22;;;;;;;2.90;0.70;;;;;;;21.17;68.76;100246.14;106804;1276;61991;-78
2022/09/09 08:54:50;;;;;;;2.20;0.60;;;;;;;21.25;67.35;100248.05;105769;1277;60347;-80
2022/09/09 08:57:26;;;;;;;3.40;0.90;;;;;;;21.24;66.71;100250.36;106307;1277;74893;-79
2022/09/09 08:59:56;;;;;;;4.60;1.20;;;;;;;21.26;65.65;100258.63;105896;1277;71538;-79
2022/09/09 09:02:30;;;;;;;3.90;1.10;;;;;;;21.26;65.03;100259.93;106900;1277;75036;-81
2022/09/09 09:05:27;;;;;;;4.10;1.10;;;;;;;21.27;65.83;100259.11;107216;1276;63341;-80
2022/09/09 09:08:16;;;;;;;3.00;0.80;;;;;;;21.29;65.64;100261.71;106519;1276;61560;-80
2022/09/09 09:10:50;;;;;;;5.00;1.00;;;;;;;21.26;63.74;100262.63;106889;1276;73890;-82
2022/09/09 09:13:23;;;;;;;5.60;1.00;;;;;;;21.35;64.30;100263.93;106476;1277;73096;-81
2022/09/09 09:15:58;;;;;;;4.20;1.10;;;;;;;21.38;63.78;100265.75;107074;1277;72671;-81
2022/09/09 09:18:26;;;;;;;4.70;1.70;;;;;;;21.44;63.67;100264.95;106599;1277;62328;-82
2022/09/09 09:21:05;;;;;;;5.00;1.20;;;;;;;21.60;63.80;100264.21;106723;1277;60673;-82
2022/09/09 09:23:42;;;;;;;3.80;0.90;;;;;;;21.65;62.63;100266.08;107172;1277;74113;-79
2022/09/09 09:26:12;;;;;;;4.30;1.10;;;;;;;21.67;62.92;100261.67;107189;1276;70400;-82
2022/09/09 09:28:41;;;;;;;2.70;0.80;;;;;;;21.65;62.92;100263.67;106657;1277;73545;-81
2022/09/09 09:31:10;;;;;;;4.70;0.80;;;;;;;21.59;62.72;100263.23;106705;1276;61950;-80
2022/09/09 09:33:49;;;;;;;5.60;1.30;;;;;;;21.64;63.40;100262.89;107035;1277;61843;-80
2022/09/09 09:36:16;;;;;;;5.10;1.20;;;;;;;21.63;62.72;100262.13;107166;1277;74061;-82
2022/09/09 09:39:00;;;;;;;3.50;0.80;;;;;;;21.70;62.60;100260.94;106586;1277;71187;-81
2022/09/09 09:41:47;;;;;;;4.70;1.00;;;;;;;21.86;62.11;100262.02;106652;1276;73939;-80
2022/09/09 09:44:41;;;;;;;3.10;0.80;;;;;;;21.95;61.11;100261.97;106949;1274;63907;-81
2022/09/09 09:47:19;;;;;;;3.90;0.80;;;;;;;22.08;60.92;100263.65;106579;1277;60872;-81
2022/09/09 09:50:07;;;;;;;3.70;0.90;;;;;;;22.08;60.13;100261.98;106664;1277;74096;-81
2022/09/09 09:52:36;;;;;;;4.50;1.00;;;;;;;22.05;60.15;100263.48;105866;1277;71352;-81
2022/09/09 09:55:12;;;;;;;2.90;0.90;;;;;;;22.05;60.89;100260.13;106301;1277;72697;-81
2022/09/09 09:57:39;;;;;;;4.50;1.10;;;;;;;22.04;61.31;100257.91;106872;1277;61772;-81
2022/09/09 10:00:21;;;;;;;3.40;0.90;;;;;;;21.94;59.99;100260.02;106237;1275;60497;-81
2022/09/09 10:02:51;;;;;;;4.30;0.80;;;;;;;21.90;60.38;100255.63;106233;1276;73784;-82
2022/09/09 10:05:35;;;;;;;4.00;1.00;;;;;;;21.88;59.78;100257.83;106194;1277;71231;-82
2022/09/09 10:08:09;;;;;;;2.70;0.80;;;;;;;21.97;60.07;100255.44;106277;1276;72357;-82
2022/09/09 10:10:41;;;;;;;5.10;1.10;;;;;;;22.05;59.14;100249.96;105855;1276;62012;-82
2022/09/09 10:13:32;;;;;;;3.20;0.70;;;;;;;22.15;59.04;100244.94;106213;1277;62014;-81
2022/09/09 10:16:26;;;;;;;3.40;0.80;;;;;;;22.31;59.00;100244.02;106589;1276;74151;-83
2022/09/09 10:19:11;;;;;;;3.80;0.80;;;;;;;22.24;57.96;100245.02;106248;1277;72330;-82
2022/09/09 10:21:38;;;;;;;3.40;1.00;;;;;;;22.13;58.91;100245.96;106767;1276;74112;-81
2022/09/09 10:24:10;;;;;;;3.50;0.80;;;;;;;22.08;58.77;100242.10;106470;1277;63344;-82
2022/09/09 10:26:52;;;;;;;5.50;1.40;;;;;;;22.13;59.09;100242.40;105729;1277;61352;-82
2022/09/09 10:29:28;;;;;;;3.60;0.90;;;;;;;22.31;59.36;100238.89;106139;1276;74514;-82
2022/09/09 10:32:20;;;;;;;5.20;1.30;;;;;;;22.40;59.17;100232.98;105734;1277;71757;-83
2022/09/09 10:35:11;;;;;;;4.70;1.10;;;;;;;22.44;58.86;100232.98;106028;1277;72851;-82
2022/09/09 10:37:54;;;;;;;3.40;0.90;;;;;;;22.25;58.32;100232.48;106330;1276;62451;-82
2022/09/09 10:40:26;;;;;;;5.10;1.10;;;;;;;22.04;58.32;100233.49;106334;1276;60513;-83
2022/09/09 10:43:01;;;;;;;3.30;0.90;;;;;;;21.86;59.43;100232.53;106453;1277;75383;-83
2022/09/09 10:45:50;;;;;;;5.90;1.10;;;;;;;21.68;59.81;100236.38;106193;1277;71375;-82
2022/09/09 10:48:50;;;;;;;3.70;0.90;;;;;;;21.55;60.69;100238.97;106031;1277;73061;-82
2022/09/09 10:51:26;;;;;;;4.60;0.90;;;;;;;21.42;61.22;100238.70;106059;1276;62066;-82
2022/09/09 10:54:13;;;;;;;5.30;1.00;;;;;;;21.29;60.95;100244.73;106469;1275;60584;-82
2022/09/09 10:56:43;;;;;;;4.80;1.10;;;;;;;21.16;60.96;100246.61;106647;1277;74043;-82
2022/09/09 10:59:26;;;;;;;4.70;0.90;;;;;;;21.10;61.84;100244.41;105820;1277;71495;-82
2022/09/09 11:02:41;;;;;;;6.20;1.20;;;;;;;21.09;62.25;100239.38;106489;1277;72666;-82
2022/09/09 11:05:17;;;;;;;3.70;0.80;;;;;;;21.15;62.32;100239.10;106456;1276;63593;-82
2022/09/09 11:08:39;;;;;;;4.20;1.30;;;;;;;21.31;62.14;100231.69;106042;1277;61665;-83
2022/09/09 11:11:32;;;;;;;4.70;0.90;;;;;;;21.77;62.19;100228.64;105328;1283;75077;-84
2022/09/09 11:14:09;;;;;;;2.90;0.90;;;;;;;22.34;61.75;100226.95;106613;1277;72482;-82
2022/09/09 11:16:42;;;;;;;2.80;0.70;;;;;;;22.67;60.73;100235.06;105980;1277;72903;-84
2022/09/09 11:19:16;;;;;;;4.10;0.80;;;;;;;22.80;58.99;100234.92;105747;1274;61002;-83
2022/09/09 11:21:51;;;;;;;4.40;0.90;;;;;;;22.87;57.24;100220.16;106917;1277;59438;-82
2022/09/09 11:24:28;;;;;;;3.00;0.80;;;;;;;22.71;55.91;100210.14;106168;1277;75460;-85
2022/09/09 11:27:07;;;;;;;2.90;0.80;;;;;;;22.58;55.32;100213.79;106089;1277;72056;-82
2022/09/09 11:29:53;;;;;;;3.10;0.60;;;;;;;22.31;55.16;100231.20;105787;1276;75356;-83
2022/09/09 11:32:20;;;;;;;3.10;0.80;;;;;;;22.01;56.66;100245.70;106383;1277;60505;-83
2022/09/09 11:34:53;;;;;;;4.30;0.80;;;;;;;21.79;58.21;100254.03;105761;1277;60274;-84
2022/09/09 11:37:54;;;;;;;3.20;0.80;;;;;;;21.59;59.51;100255.16;106188;1277;74521;-83
2022/09/09 11:40:26;;;;;;;2.40;0.80;;;;;;;21.35;60.63;100268.09;105847;1276;71293;-83
2022/09/09 11:43:05;;;;;;;3.90;0.90;;;;;;;21.09;61.67;100273.48;105892;1276;72696;-82
2022/09/09 11:45:35;;;;;;;3.30;0.80;;;;;;;20.68;59.79;100284.50;106845;1276;63280;-83